Latest Weather Observations for Lake Julius

IDQ60801

Issued at 9:02 pm EST Thursday 27 April 2017 (issued every 30 minutes, with the page automatically refreshed every 10 minutes)

About weather observations | Map of weather stations | Latest weather observations for QLD | Other Formats
Station Details ID: 029181 Name: LAKE JULIUS AWS Lat: -20.12 Lon: 139.73 Height: 237.0 m
Data from the previous 72 hours. | See also: Recent months at Lake Julius
Date/Time
EST
Temp
°C
App
Temp
°C
Dew
Point
°C
Rel
Hum
%
Delta-T
°C
Wind Press
QNH
hPa
Press
MSL
hPa
Rain since
9am
mm
Dir  Spd
km/h
Gust
km/h
Spd
kts
Gust
kts
27/09:00pm 21.3 16.6 -1.9 21 10.1 SSE 13 22 7 12 - - 0.0
27/08:30pm 21.8 16.9 -0.8 22 10.1 S 15 26 8 14 - - 0.0
27/08:00pm 22.5 16.2 -0.9 21 10.5 S 22 33 12 18 - - 0.0
27/07:30pm 22.9 17.7 0.1 22 10.5 S 17 26 9 14 - - 0.0
27/07:00pm 23.4 17.7 0.5 22 10.6 S 20 32 11 17 - - 0.0
27/06:30pm 23.9 18.4 0.9 22 10.8 SSE 19 26 10 14 - - 0.0
27/06:00pm 24.5 18.5 0.8 21 11.2 SSE 22 35 12 19 - - 0.0
27/05:30pm 25.1 19.5 1.3 21 11.4 S 20 33 11 18 - - 0.0
27/05:00pm 25.6 19.7 1.7 21 11.5 S 22 33 12 18 - - 0.0
27/04:30pm 25.7 19.6 0.4 19 11.9 S 22 37 12 20 - - 0.0
27/04:00pm 26.3 21.1 0.1 18 12.3 SSE 17 30 9 16 - - 0.0
27/03:30pm 26.6 20.9 0.4 18 12.4 S 20 30 11 16 - - 0.0
27/03:00pm 26.5 20.8 0.3 18 12.4 S 20 32 11 17 - - 0.0
27/02:30pm 26.8 21.3 0.5 18 12.5 S 19 30 10 16 - - 0.0
27/02:00pm 25.5 20.0 1.6 21 11.5 S 20 33 11 18 - - 0.0
27/01:30pm 25.1 19.2 1.9 22 11.2 S 22 33 12 18 - - 0.0
27/01:00pm 25.5 21.5 2.9 23 11.1 SSE 13 26 7 14 - - 0.0
27/12:30pm 24.3 18.5 2.5 24 10.6 S 22 39 12 21 - - 0.0
27/12:00pm 24.6 19.8 2.7 24 10.7 S 17 30 9 16 - - 0.0
27/11:30am 23.6 19.4 4.0 28 9.7 SSE 15 28 8 15 - - 0.0
27/11:00am 23.4 18.6 4.9 30 9.3 S 19 32 10 17 - - 0.0
27/10:30am 22.1 16.7 4.7 32 8.7 SSE 22 35 12 19 - - 0.0
27/10:00am 21.4 15.6 4.5 33 8.3 S 24 35 13 19 - - 0.0
27/09:30am 21.5 15.8 5.0 34 8.2 SSE 24 39 13 21 - - 0.0
27/09:00am 20.3 14.1 4.4 35 7.8 S 26 39 14 21 - - -
27/08:30am 20.1 14.3 4.6 36 7.6 S 24 43 13 23 - - -
27/08:00am 19.8 14.7 3.9 35 7.7 SSE 20 39 11 21 - - -
27/07:30am 19.5 14.3 3.6 35 7.6 SSE 20 33 11 18 - - -
27/07:00am 19.7 14.7 3.8 35 7.6 S 19 30 10 16 - - -
27/06:30am 20.2 14.6 3.4 33 8.0 S 22 37 12 20 - - -
27/06:00am 20.2 15.5 3.4 33 8.0 S 17 28 9 15 - - -
27/05:30am 20.0 16.8 3.3 33 8.0 SSE 9 17 5 9 - - -
27/05:00am 20.2 16.6 3.0 32 8.2 S 11 19 6 10 - - -
27/04:30am 20.6 17.0 2.9 31 8.4 S 11 26 6 14 - - -
27/04:00am 20.7 17.0 2.5 30 8.6 S 11 19 6 10 - - -
27/03:30am 21.0 17.4 2.8 30 8.7 S 11 19 6 10 - - -
27/03:00am 21.3 16.9 2.6 29 8.9 S 15 28 8 15 - - 0.0
27/02:30am 21.8 16.5 2.0 27 9.3 S 19 28 10 15 - - -
27/02:00am 22.1 17.2 1.7 26 9.6 S 17 30 9 16 - - -
27/01:30am 22.5 16.9 0.9 24 10.0 S 20 33 11 18 - - -
27/01:00am 23.1 17.6 2.0 25 10.1 S 20 32 11 17 - - -
27/12:30am 23.5 17.6 4.0 28 9.7 S 24 39 13 21 - - -
27/12:00am 23.9 20.1 5.8 31 9.3 S 15 22 8 12 - - -
 
Date/Time
EST
Temp
°C
App
Temp
°C
Dew
Point
°C
Rel
Hum
%
Delta-T
°C
Wind Press
QNH
hPa
Press
MSL
hPa
Rain since
9am
mm
Dir  Spd
km/h
Gust
km/h
Spd
kts
Gust
kts
26/11:30pm 24.4 19.7 6.2 31 9.5 S 20 30 11 16 - - -
26/11:00pm 24.6 20.5 6.4 31 9.5 S 17 33 9 18 - - -
26/10:30pm 25.0 20.4 6.7 31 9.6 S 20 32 11 17 - - -
26/10:00pm 25.3 21.3 6.5 30 9.9 S 17 24 9 13 - - -
26/09:30pm 25.5 22.5 6.2 29 10.1 S 11 17 6 9 - - -
26/09:00pm 26.0 22.6 6.1 28 10.4 S 13 22 7 12 - - 0.0
26/08:30pm 26.4 23.1 6.4 28 10.5 S 13 24 7 13 - - -
26/08:00pm 26.8 22.7 6.2 27 10.9 S 17 24 9 13 - - -
26/07:30pm 27.0 23.4 6.9 28 10.7 S 15 22 8 12 - - -
26/07:00pm 27.2 23.7 7.1 28 10.8 S 15 22 8 12 - - -
26/06:30pm 27.7 23.8 7.0 27 11.1 S 17 26 9 14 - - -
26/06:00pm 28.4 24.0 7.6 27 11.3 S 20 32 11 17 - - -
26/05:30pm 29.4 25.8 8.5 27 11.6 S 17 28 9 15 - - -
26/05:00pm 30.1 26.3 9.1 27 11.8 S 19 32 10 17 - - -
26/04:30pm 30.3 26.7 9.8 28 11.7 S 19 33 10 18 - - -
26/04:00pm 31.0 27.9 10.4 28 11.9 S 17 28 9 15 - - -
26/03:30pm 30.8 27.3 10.2 28 11.8 S 19 30 10 16 - - -
26/03:00pm 31.2 29.1 11.1 29 11.7 S 13 24 7 13 - - -
26/12:30pm 29.5 26.7 11.5 33 10.5 S 17 24 9 13 - - 0.0
26/12:00pm 28.2 24.9 11.7 36 9.6 S 20 35 11 19 - - 0.0
26/11:30am 27.5 23.2 11.9 38 9.1 S 26 41 14 22 - - 0.0
26/11:00am 27.6 25.0 13.2 41 8.6 S 19 35 10 19 - - 0.0
26/10:30am 26.9 24.2 13.6 44 7.9 S 20 32 11 17 - - 0.0
26/10:00am 26.0 21.9 13.8 47 7.3 S 28 43 15 23 - - 0.0
26/09:30am 25.7 21.4 14.5 50 6.7 S 30 44 16 24 - - 0.0
26/09:00am 25.6 22.7 15.0 52 6.4 S 24 35 13 19 - - 0.0
26/08:30am 25.4 23.3 15.1 53 6.3 S 20 32 11 17 - - 0.0
26/08:00am 25.9 24.0 14.1 48 7.1 S 17 22 9 12 - - 0.0
26/07:30am 25.1 23.5 13.9 49 6.7 S 15 24 8 13 - - 0.0
26/07:00am 24.7 23.7 13.3 49 6.7 S 11 17 6 9 - - 0.0
26/06:30am 23.6 23.8 14.3 56 5.5 SSW 6 9 3 5 - - 0.0
26/06:00am 23.4 24.1 14.4 57 5.4 S 4 6 2 3 - - 0.0
26/05:30am 23.3 23.4 13.8 55 5.6 SSW 6 7 3 4 - - 0.0
26/05:00am 23.3 23.5 13.2 53 5.9 SW 4 6 2 3 - - 0.0
26/04:30am 23.9 23.6 13.4 51 6.2 SSW 7 11 4 6 - - 0.0
26/04:00am 22.7 21.7 14.5 60 4.9 SSW 13 22 7 12 - - 0.0
26/03:30am 22.3 23.6 14.2 60 4.8 CALM 0 0 0 0 - - 0.0
26/03:00am 22.6 23.8 13.9 58 5.1 CALM 0 0 0 0 - - 0.0
26/02:30am 22.8 24.1 14.1 58 5.1 CALM 0 0 0 0 - - 0.0
26/02:00am 23.3 24.5 13.8 55 5.6 CALM 0 0 0 0 - - 0.0
26/01:30am 23.6 24.7 13.5 53 5.9 CALM 0 0 0 0 - - 0.0
26/01:00am 23.9 25.1 13.7 53 6.0 CALM 0 0 0 0 - - 0.0
26/12:30am 24.4 25.9 15.6 58 5.4 SSW 2 2 1 1 - - 0.0
26/12:00am 24.5 25.3 13.7 51 6.4 SSW 2 2 1 1 - - 0.0
 
Date/Time
EST
Temp
°C
App
Temp
°C
Dew
Point
°C
Rel
Hum
%
Delta-T
°C
Wind Press
QNH
hPa
Press
MSL
hPa
Rain since
9am
mm
Dir  Spd
km/h
Gust
km/h
Spd
kts
Gust
kts
25/11:30pm 25.1 25.9 14.9 53 6.2 S 4 4 2 2 - - 0.0
25/11:00pm 25.7 27.4 15.1 52 6.4 CALM 0 0 0 0 - - 0.0
25/10:30pm 26.4 27.3 12.8 43 8.0 CALM 0 0 0 0 - - 0.0
25/10:00pm 26.5 27.5 13.3 44 7.8 CALM 0 0 0 0 - - 0.0
25/09:30pm 27.4 28.2 12.6 40 8.7 CALM 0 0 0 0 - - 0.0
25/09:00pm 27.7 28.5 12.5 39 8.9 CALM 0 0 0 0 - - 0.0
25/08:30pm 28.4 29.2 12.7 38 9.3 CALM 0 0 0 0 - - 0.0
25/08:00pm 29.1 29.3 12.9 37 9.6 N 4 4 2 2 - - 0.0
25/07:30pm 29.7 29.6 12.2 34 10.3 NNE 4 4 2 2 - - 0.0
25/07:00pm 30.7 30.8 12.6 33 10.8 NNE 4 6 2 3 - - 0.0
25/06:30pm 31.9 32.4 11.7 29 11.9 CALM 0 0 0 0 - - 0.0
25/06:00pm 32.9 33.3 11.4 27 12.7 CALM 0 0 0 0 - - 0.0
25/05:30pm 34.3 34.7 11.4 25 13.6 CALM 0 2 0 1 - - 0.0
25/05:00pm 33.8 33.8 11.0 25 13.4 NNW 2 6 1 3 - - 0.0
25/04:30pm 33.5 32.2 11.4 26 13.1 ESE 9 17 5 9 - - 0.0
25/04:00pm 34.9 34.4 12.0 25 13.8 NNW 6 13 3 7 - - 0.0
25/03:30pm 34.1 34.3 11.9 26 13.3 SSE 2 6 1 3 - - 0.0
25/03:00pm 34.2 33.5 12.0 26 13.3 NNE 7 11 4 6 - - 0.0
25/02:30pm 34.6 33.8 11.7 25 13.7 ESE 7 15 4 8 - - 0.0
25/02:00pm 34.4 33.0 12.1 26 13.4 NNE 11 19 6 10 - - 0.0
25/01:30pm 34.0 34.2 12.9 28 12.8 ENE 4 6 2 3 - - 0.0
25/01:00pm 32.3 31.2 13.0 31 11.7 N 11 19 6 10 - - 0.0
25/12:30pm 32.2 32.1 13.4 32 11.4 NNE 6 11 3 6 - - 0.0
25/12:00pm 31.4 31.5 14.5 35 10.4 NE 7 17 4 9 - - 0.0
25/11:30am 30.6 30.1 13.8 35 10.2 NE 9 15 5 8 - - 0.0
25/11:00am 29.6 28.7 13.8 38 9.6 NNE 11 17 6 9 - - 0.0
25/10:30am 29.1 28.4 13.3 37 9.5 NE 9 17 5 9 - - 0.0
25/10:00am 28.9 27.7 12.8 37 9.6 NE 11 17 6 9 - - 0.0
25/09:30am 28.0 26.8 11.5 35 9.6 NE 9 17 5 9 - - 0.0
25/09:00am 26.8 26.8 12.5 41 8.4 NE 4 9 2 5 - - 0.0
25/08:30am 23.6 25.2 14.9 58 5.2 CALM 0 0 0 0 - - 0.0
25/08:00am 21.4 22.4 14.3 64 4.2 SSW 2 4 1 2 - - 0.0
25/07:30am 19.9 20.6 14.5 71 3.2 NNE 4 6 2 3 - - 0.0
25/07:00am 20.1 21.2 13.6 66 3.8 CALM 0 0 0 0 - - 0.0
25/06:30am 20.5 21.7 13.9 66 3.9 CALM 0 0 0 0 - - 0.0
25/06:00am 20.7 21.8 13.4 63 4.2 CALM 0 0 0 0 - - 0.0
25/05:30am 21.2 21.7 14.1 64 4.2 SW 4 6 2 3 - - 0.0
25/05:00am 21.4 21.8 13.6 61 4.5 SW 4 6 2 3 - - 0.0
25/04:30am 22.4 22.8 14.8 62 4.5 SW 6 6 3 3 - - 0.0
25/04:00am 22.2 22.9 13.3 57 5.2 S 2 4 1 2 - - 0.0
25/03:30am 22.3 22.9 13.1 56 5.3 SSW 2 4 1 2 - - 0.0
25/03:00am 22.9 23.8 12.8 53 5.8 CALM 0 0 0 0 - - 0.0
25/02:30am 23.6 24.3 13.5 53 5.9 SSW 2 6 1 3 - - 0.0
25/02:00am 22.6 24.5 15.7 65 4.2 CALM 0 0 0 0 - - 0.0
25/01:30am 22.8 24.0 14.9 61 4.7 SW 2 6 1 3 - - 0.0
25/01:00am 23.3 23.7 14.8 59 5.1 SW 6 7 3 4 - - 0.0
25/12:30am 23.4 23.9 14.1 56 5.5 SSW 4 6 2 3 - - 0.0
25/12:00am 23.6 25.0 14.3 56 5.5 CALM 0 0 0 0 - - 0.0
 
Date/Time
EST
Temp
°C
App
Temp
°C
Dew
Point
°C
Rel
Hum
%
Delta-T
°C
Wind Press
QNH
hPa
Press
MSL
hPa
Rain since
9am
mm
Dir  Spd
km/h
Gust
km/h
Spd
kts
Gust
kts
24/11:30pm 24.0 25.6 16.0 61 4.9 SSW 2 4 1 2 - - 0.0
24/11:00pm 24.5 25.7 13.7 51 6.4 CALM 0 0 0 0 - - 0.0
24/10:30pm 24.9 26.1 13.8 50 6.6 CALM 0 0 0 0 - - 0.0
24/10:00pm 25.4 26.6 13.9 49 6.9 CALM 0 0 0 0 - - 0.0
24/09:30pm 26.1 28.0 15.8 53 6.3 CALM 0 0 0 0 - - 0.0

Other Formats:

Comma delimited format used in spreadsheet applications
http://www.bom.gov.au/fwo/IDQ60801/IDQ60801.94348.axf

JavaScript Object Notation format (JSON) in row-major order
http://www.bom.gov.au/fwo/IDQ60801/IDQ60801.94348.json